createdAt,value
2018-07-04T00:01:40.119Z,9.33
2018-07-04T00:04:19.895Z,9.07
2018-07-04T00:07:00.052Z,13.33
2018-07-04T00:09:39.931Z,13.20
2018-07-04T00:12:19.941Z,9.37
2018-07-04T00:14:59.865Z,9.40
2018-07-04T00:17:40.160Z,7.27
2018-07-04T00:20:20.628Z,10.07
2018-07-04T00:23:00.603Z,10.67
2018-07-04T00:25:40.582Z,8.27
2018-07-04T00:28:20.768Z,9.13
2018-07-04T00:31:00.731Z,12.50
2018-07-04T00:33:40.666Z,14.33
2018-07-04T00:36:20.329Z,9.50
2018-07-04T00:39:00.273Z,15.40
2018-07-04T00:41:40.387Z,12.80
2018-07-04T00:44:20.240Z,6.50
2018-07-04T00:47:00.126Z,10.73
2018-07-04T00:49:40.395Z,7.93
2018-07-04T00:52:20.311Z,12.97
2018-07-04T00:55:00.364Z,8.37
2018-07-04T00:57:40.229Z,11.53
2018-07-04T01:00:19.775Z,11.40
2018-07-04T01:02:59.623Z,10.43
2018-07-04T01:05:39.566Z,7.63
2018-07-04T01:08:19.389Z,10.47
2018-07-04T01:10:59.275Z,11.73
2018-07-04T01:13:39.097Z,9.47
2018-07-04T01:16:19.060Z,6.97
2018-07-04T01:18:59.015Z,10.13
2018-07-04T01:21:38.938Z,10.93
2018-07-04T01:24:18.768Z,7.67
2018-07-04T01:26:58.562Z,11.00
2018-07-04T01:29:38.347Z,10.60
2018-07-04T01:32:18.252Z,9.27
2018-07-04T01:34:57.895Z,7.70
2018-07-04T01:37:37.639Z,10.10
2018-07-04T01:40:17.455Z,9.00
2018-07-04T01:42:57.480Z,19.27
2018-07-04T01:45:37.322Z,11.00
2018-07-04T01:48:17.180Z,12.83
2018-07-04T01:50:56.955Z,13.43
2018-07-04T01:53:36.754Z,11.87
2018-07-04T01:56:16.567Z,13.07
2018-07-04T01:58:56.307Z,8.40
2018-07-04T02:01:36.235Z,12.43
2018-07-04T02:04:16.114Z,12.20
2018-07-04T02:06:56.123Z,10.67
2018-07-04T02:09:35.999Z,6.70
2018-07-04T02:12:15.835Z,12.60
2018-07-04T02:14:55.705Z,8.80
2018-07-04T02:17:35.412Z,8.70
2018-07-04T02:20:15.323Z,11.30
2018-07-04T02:22:55.558Z,14.80
2018-07-04T02:25:35.383Z,11.37
2018-07-04T02:28:15.487Z,14.03
2018-07-04T02:30:55.585Z,9.30
2018-07-04T02:33:35.389Z,10.30
2018-07-04T02:36:15.217Z,7.90
2018-07-04T02:38:55.029Z,9.53
2018-07-04T02:41:34.975Z,11.33
2018-07-04T02:44:14.797Z,8.10
2018-07-04T02:46:54.620Z,8.17
2018-07-04T02:49:34.441Z,10.33
2018-07-04T02:52:14.398Z,10.53
2018-07-04T02:54:54.108Z,12.23
2018-07-04T02:57:34.063Z,10.77
2018-07-04T03:00:13.851Z,12.80
2018-07-04T03:02:53.873Z,8.73
2018-07-04T03:05:33.486Z,11.90
2018-07-04T03:08:13.476Z,9.07
2018-07-04T03:10:53.183Z,13.70
2018-07-04T03:13:33.692Z,8.10
2018-07-04T03:16:13.428Z,7.70
2018-07-04T03:18:53.296Z,9.50
2018-07-04T03:21:32.976Z,10.90
2018-07-04T03:24:12.872Z,12.33
2018-07-04T03:26:52.488Z,13.17
2018-07-04T03:29:32.279Z,10.17
2018-07-04T03:32:12.235Z,10.43
2018-07-04T03:34:52.040Z,12.13
2018-07-04T03:37:31.767Z,9.73
2018-07-04T03:40:11.725Z,11.57
2018-07-04T03:42:51.347Z,16.27
2018-07-04T03:45:31.419Z,8.13
2018-07-04T03:48:11.029Z,10.17
2018-07-04T03:50:51.011Z,14.30
2018-07-04T03:53:31.028Z,11.23
2018-07-04T03:56:10.871Z,13.53
2018-07-04T03:58:50.629Z,12.77
2018-07-04T04:01:30.576Z,9.07
2018-07-04T04:04:10.359Z,13.30
2018-07-04T04:06:50.479Z,11.90
2018-07-04T04:09:30.242Z,10.20
2018-07-04T04:12:10.127Z,11.03
2018-07-04T04:14:49.846Z,10.43
2018-07-04T04:17:29.732Z,9.77
2018-07-04T04:20:09.524Z,10.50
2018-07-04T04:22:49.591Z,11.80
2018-07-04T04:25:29.313Z,7.33
2018-07-04T04:28:09.085Z,13.43
2018-07-04T04:30:48.820Z,14.30
2018-07-04T04:33:28.777Z,13.03
2018-07-04T04:36:08.571Z,11.03
2018-07-04T04:38:48.498Z,11.30
2018-07-04T04:41:28.444Z,7.17
2018-07-04T04:44:08.375Z,11.40
2018-07-04T04:46:48.010Z,6.50
2018-07-04T04:49:27.799Z,8.07
2018-07-04T04:52:07.544Z,9.30
2018-07-04T04:54:47.553Z,11.13
2018-07-04T04:57:27.268Z,13.20
2018-07-04T05:00:07.148Z,10.17
2018-07-04T05:02:47.050Z,10.23
2018-07-04T05:05:27.051Z,13.90
2018-07-04T05:08:06.712Z,13.50
2018-07-04T05:10:46.390Z,9.00
2018-07-04T05:13:26.283Z,11.73
2018-07-04T05:16:07.282Z,10.27
2018-07-04T05:18:47.142Z,8.17
2018-07-04T05:21:27.159Z,17.17
2018-07-04T05:24:07.341Z,14.63
2018-07-04T05:26:47.181Z,10.60
2018-07-04T05:29:27.008Z,9.60
2018-07-04T05:32:07.167Z,13.83
2018-07-04T05:34:46.836Z,7.63
2018-07-04T05:37:26.464Z,7.33
2018-07-04T05:40:06.516Z,15.30
2018-07-04T05:42:46.355Z,11.17
2018-07-04T05:45:25.992Z,11.80
2018-07-04T05:48:05.984Z,14.13
2018-07-04T05:50:45.752Z,13.07
2018-07-04T05:53:25.591Z,10.87
2018-07-04T05:56:05.296Z,9.80
2018-07-04T05:58:45.230Z,11.20
2018-07-04T06:01:24.850Z,16.13
2018-07-04T06:04:04.796Z,9.87
2018-07-04T06:06:44.571Z,11.73
2018-07-04T06:09:24.267Z,10.20
2018-07-04T06:12:03.999Z,6.10
2018-07-04T06:14:45.242Z,11.43
2018-07-04T06:17:25.624Z,8.00
2018-07-04T06:20:05.699Z,9.20
2018-07-04T06:22:46.040Z,12.17
2018-07-04T06:25:26.634Z,22.00
2018-07-04T06:28:06.960Z,17.17
2018-07-04T06:30:47.435Z,11.83
2018-07-04T06:33:28.929Z,12.57
2018-07-04T06:36:10.078Z,10.87
2018-07-04T06:38:37.947Z,10.93
2018-07-04T06:41:06.967Z,15.20
2018-07-04T06:43:36.380Z,10.27
2018-07-04T06:46:05.545Z,9.73
2018-07-04T06:48:37.511Z,12.60
2018-07-04T06:51:06.692Z,11.60
2018-07-04T06:53:34.770Z,6.67
2018-07-04T06:56:02.243Z,13.60
2018-07-04T06:58:29.520Z,13.67
2018-07-04T07:00:58.030Z,14.57
2018-07-04T07:03:38.606Z,12.00
2018-07-04T07:06:18.409Z,11.47
2018-07-04T07:08:58.608Z,13.30
2018-07-04T07:11:38.557Z,6.97
2018-07-04T07:14:19.345Z,14.00
2018-07-04T07:16:59.162Z,13.80
2018-07-04T07:19:39.344Z,8.40
2018-07-04T07:22:19.059Z,5.50
2018-07-04T07:24:58.868Z,13.47
2018-07-04T07:27:38.882Z,13.27
2018-07-04T07:30:18.944Z,7.27
2018-07-04T07:32:58.789Z,9.20
2018-07-04T07:35:38.819Z,14.50
2018-07-04T07:38:18.483Z,20.87
2018-07-04T07:40:58.240Z,15.47
2018-07-04T07:43:38.053Z,20.27
2018-07-04T07:46:17.764Z,9.70
2018-07-04T07:48:57.627Z,15.07
2018-07-04T07:51:37.403Z,14.73
2018-07-04T07:54:17.322Z,4.63
2018-07-04T07:56:57.112Z,6.43
2018-07-04T07:59:36.960Z,4.43
2018-07-04T08:02:16.884Z,7.50
2018-07-04T08:04:57.031Z,10.80
2018-07-04T08:07:36.834Z,7.63
2018-07-04T08:10:16.568Z,6.53
2018-07-04T08:12:56.625Z,5.00
2018-07-04T08:15:36.557Z,6.00
2018-07-04T08:18:16.268Z,7.63
2018-07-04T08:20:56.103Z,6.73
2018-07-04T08:23:36.068Z,9.80
2018-07-04T08:26:15.823Z,5.83
2018-07-04T08:28:55.775Z,9.30
2018-07-04T08:31:35.583Z,8.10
2018-07-04T08:34:15.572Z,26.50
2018-07-04T08:36:55.319Z,7.17
2018-07-04T08:39:35.185Z,5.33
2018-07-04T08:42:14.989Z,10.03
2018-07-04T08:44:55.000Z,5.63
2018-07-04T08:47:34.707Z,13.33
2018-07-04T08:50:14.470Z,13.90
2018-07-04T08:52:54.186Z,11.73
2018-07-04T08:55:34.052Z,7.73
2018-07-04T08:58:13.829Z,6.57
2018-07-04T09:00:53.966Z,5.67
2018-07-04T09:03:33.808Z,4.10
2018-07-04T09:06:13.675Z,5.80
2018-07-04T09:08:53.415Z,13.27
2018-07-04T09:11:33.113Z,4.80
2018-07-04T09:14:12.887Z,11.83
2018-07-04T09:16:52.732Z,14.80
2018-07-04T09:19:32.474Z,7.03
2018-07-04T09:22:14.168Z,10.20
2018-07-04T09:24:53.879Z,14.23
2018-07-04T09:27:33.741Z,9.13
2018-07-04T09:30:13.512Z,24.03
2018-07-04T09:32:53.656Z,21.00
2018-07-04T09:35:33.515Z,13.90
2018-07-04T09:38:13.295Z,9.40
2018-07-04T09:40:53.047Z,16.67
2018-07-04T09:43:33.164Z,4.07
2018-07-04T09:46:12.949Z,6.20
2018-07-04T09:48:52.684Z,10.73
2018-07-04T09:51:32.808Z,16.40
2018-07-04T09:54:12.560Z,19.65
2018-07-04T09:56:52.404Z,13.33
2018-07-04T09:59:32.248Z,5.13
2018-07-04T10:02:11.835Z,13.50
2018-07-04T10:04:52.263Z,24.03
2018-07-04T10:10:23.195Z,13.60
2018-07-04T10:13:02.952Z,22.37
2018-07-04T10:15:43.223Z,11.20
2018-07-04T10:18:23.072Z,13.30
2018-07-04T10:21:03.300Z,14.10
2018-07-04T10:23:43.631Z,12.80
2018-07-04T10:26:23.808Z,11.40
2018-07-04T10:29:03.595Z,12.10
2018-07-04T10:31:43.521Z,14.37
2018-07-04T10:34:23.672Z,11.37
2018-07-04T10:37:03.668Z,9.83
2018-07-04T10:39:43.990Z,14.50
2018-07-04T10:42:24.246Z,17.23
2018-07-04T10:45:03.900Z,17.37
2018-07-04T10:47:44.023Z,29.10
2018-07-04T10:50:23.719Z,24.80
2018-07-04T10:53:03.592Z,14.00
2018-07-04T10:55:43.173Z,18.60
2018-07-04T10:58:23.028Z,24.57
2018-07-04T11:01:02.873Z,23.20
2018-07-04T11:03:42.763Z,18.43
2018-07-04T11:06:22.420Z,20.27
2018-07-04T11:09:02.748Z,20.80
2018-07-04T11:11:42.554Z,25.00
2018-07-04T11:14:22.289Z,20.60
2018-07-04T11:17:02.280Z,20.03
2018-07-04T11:19:42.084Z,19.80
2018-07-04T11:22:21.779Z,23.77
2018-07-04T11:25:01.991Z,22.37
2018-07-04T11:27:41.640Z,15.23
2018-07-04T11:30:21.805Z,21.80
2018-07-04T11:33:01.564Z,17.90
2018-07-04T11:35:41.298Z,16.30
2018-07-04T11:38:21.048Z,22.23
2018-07-04T11:41:00.983Z,25.50
2018-07-04T11:43:40.843Z,22.90
2018-07-04T11:46:08.427Z,22.03
2018-07-04T11:48:35.738Z,19.30
2018-07-04T11:51:03.023Z,22.20
2018-07-04T11:53:30.539Z,21.37
2018-07-04T11:55:57.921Z,24.90
2018-07-04T11:58:25.235Z,20.00
2018-07-04T12:00:52.580Z,18.47
2018-07-04T12:03:22.809Z,14.70
2018-07-04T12:06:02.836Z,14.20
2018-07-04T12:08:30.110Z,10.10
2018-07-04T12:10:58.127Z,8.30
2018-07-04T12:13:26.987Z,12.00
2018-07-04T12:15:54.327Z,14.33
2018-07-04T12:18:21.591Z,9.83
2018-07-04T12:20:49.125Z,25.80
2018-07-04T12:23:16.698Z,9.60
2018-07-04T12:25:45.078Z,9.23
2018-07-04T12:28:13.113Z,11.87
2018-07-04T12:30:40.403Z,10.97
2018-07-04T12:33:07.706Z,12.07
2018-07-04T12:35:35.174Z,10.30
2018-07-04T12:38:02.464Z,8.57
2018-07-04T12:40:29.809Z,8.90
2018-07-04T12:42:57.159Z,7.83
2018-07-04T12:45:24.460Z,5.93
2018-07-04T12:47:51.826Z,4.90
2018-07-04T12:50:31.084Z,6.77
2018-07-04T12:52:59.052Z,6.73
2018-07-04T12:55:40.517Z,7.80
2018-07-04T12:58:21.053Z,9.03
2018-07-04T13:01:01.106Z,7.73
2018-07-04T13:03:40.972Z,5.23
2018-07-04T13:06:21.122Z,6.10
2018-07-04T13:09:00.972Z,4.40
2018-07-04T13:11:41.316Z,7.13
2018-07-04T13:14:21.031Z,4.47
2018-07-04T13:17:01.005Z,3.83
2018-07-04T13:19:40.934Z,7.57
2018-07-04T13:22:20.800Z,7.30
2018-07-04T13:25:00.542Z,5.00
2018-07-04T13:27:41.226Z,3.90
2018-07-04T13:30:21.100Z,5.40
2018-07-04T13:33:01.126Z,4.90
2018-07-04T13:35:41.039Z,7.10
2018-07-04T13:38:20.744Z,3.17
2018-07-04T13:41:00.569Z,4.83
2018-07-04T13:43:40.676Z,4.03
2018-07-04T13:46:20.456Z,4.50
2018-07-04T13:49:00.512Z,3.00
2018-07-04T13:51:40.312Z,3.40
2018-07-04T13:54:20.429Z,3.97
2018-07-04T13:57:00.099Z,6.10
2018-07-04T13:59:40.464Z,6.73
2018-07-04T14:02:20.292Z,3.63
2018-07-04T14:05:00.392Z,12.10
2018-07-04T14:07:40.235Z,4.37
2018-07-04T14:10:20.089Z,7.90
2018-07-04T14:12:59.885Z,8.30
2018-07-04T14:15:40.025Z,6.57
2018-07-04T14:18:19.939Z,7.53
2018-07-04T14:20:59.902Z,7.30
2018-07-04T14:23:43.105Z,12.30
2018-07-04T14:26:23.039Z,14.30
2018-07-04T14:29:03.032Z,12.73
2018-07-04T14:31:42.944Z,11.83
2018-07-04T14:34:22.602Z,16.30
2018-07-04T14:37:02.785Z,18.00
2018-07-04T14:39:42.536Z,17.33
2018-07-04T14:42:22.390Z,14.27
2018-07-04T14:45:02.138Z,10.00
2018-07-04T14:47:42.040Z,13.97
2018-07-04T14:50:21.899Z,28.90
2018-07-04T14:53:01.971Z,31.97
2018-07-04T14:55:42.692Z,24.50
2018-07-04T14:58:22.899Z,21.10
2018-07-04T15:01:02.494Z,18.13
2018-07-04T15:03:42.200Z,18.03
2018-07-04T15:06:21.841Z,12.63
2018-07-04T15:09:01.993Z,6.43
2018-07-04T15:11:41.921Z,9.10
2018-07-04T15:14:21.974Z,6.37
2018-07-04T15:17:01.883Z,11.73
2018-07-04T15:19:41.667Z,4.77
2018-07-04T15:22:21.560Z,16.63
2018-07-04T15:25:02.082Z,4.67
2018-07-04T15:27:41.757Z,4.27
2018-07-04T15:30:21.840Z,6.70
2018-07-04T15:33:02.506Z,10.10
2018-07-04T15:35:42.623Z,6.83
2018-07-04T15:38:22.723Z,7.83
2018-07-04T15:41:02.626Z,11.13
2018-07-04T15:43:42.459Z,4.80
2018-07-04T15:46:22.291Z,6.60
2018-07-04T15:49:01.968Z,4.80
2018-07-04T15:51:42.237Z,9.60
2018-07-04T15:54:22.028Z,4.43
2018-07-04T15:57:01.735Z,9.40
2018-07-04T15:59:41.531Z,6.53
2018-07-04T16:02:21.405Z,4.23
2018-07-04T16:05:01.260Z,6.80
2018-07-04T16:07:41.292Z,6.13
2018-07-04T16:10:21.040Z,8.67
2018-07-04T16:13:00.884Z,9.63
2018-07-04T16:15:40.598Z,5.20
2018-07-04T16:18:20.417Z,4.90
2018-07-04T16:21:00.108Z,8.73
2018-07-04T16:23:40.186Z,4.60
2018-07-04T16:26:20.059Z,5.53
2018-07-04T16:28:59.860Z,5.03
2018-07-04T16:31:39.677Z,12.33
2018-07-04T16:34:19.770Z,7.77
2018-07-04T16:36:59.900Z,4.80
2018-07-04T16:39:40.296Z,4.40
2018-07-04T16:42:20.450Z,8.23
2018-07-04T16:45:00.230Z,4.67
2018-07-04T16:47:40.099Z,6.00
2018-07-04T16:50:20.427Z,5.83
2018-07-04T16:53:00.344Z,7.13
2018-07-04T16:55:40.479Z,9.83
2018-07-04T16:58:20.421Z,9.00
2018-07-04T17:01:00.524Z,5.13
2018-07-04T17:03:40.290Z,8.03
2018-07-04T17:06:20.599Z,10.43
2018-07-04T17:09:00.323Z,9.30
2018-07-04T17:11:40.409Z,10.53
2018-07-04T17:14:20.163Z,11.53
2018-07-04T17:17:00.253Z,7.30
2018-07-04T17:19:40.363Z,12.60
2018-07-04T17:22:20.315Z,8.20
2018-07-04T17:25:00.260Z,6.80
2018-07-04T17:27:40.600Z,5.23
2018-07-04T17:30:20.674Z,9.33
2018-07-04T17:33:01.403Z,5.97
2018-07-04T17:35:41.411Z,8.37
2018-07-04T17:38:21.426Z,9.40
2018-07-04T17:41:01.390Z,7.63
2018-07-04T17:43:41.631Z,8.73
2018-07-04T17:46:21.401Z,10.40
2018-07-04T17:49:01.843Z,7.33
2018-07-04T17:51:41.584Z,11.83
2018-07-04T17:54:21.340Z,11.73
2018-07-04T17:57:01.428Z,16.40
2018-07-04T17:59:41.396Z,14.93
2018-07-04T18:02:21.257Z,11.30
2018-07-04T18:05:01.245Z,8.67
2018-07-04T18:07:41.101Z,9.43
2018-07-04T18:10:20.926Z,8.10
2018-07-04T18:13:00.713Z,8.17
2018-07-04T18:15:40.575Z,9.90
2018-07-04T18:18:20.560Z,9.30
2018-07-04T18:21:04.664Z,11.00
2018-07-04T18:23:44.545Z,9.60
2018-07-04T18:26:24.463Z,9.53
2018-07-04T18:29:04.133Z,7.77
2018-07-04T18:31:44.332Z,14.70
2018-07-04T18:34:25.035Z,18.20
2018-07-04T18:37:05.236Z,16.70
2018-07-04T18:39:45.079Z,11.53
2018-07-04T18:42:25.109Z,10.47
2018-07-04T18:45:05.064Z,17.70
2018-07-04T18:47:45.145Z,11.60
2018-07-04T18:50:24.655Z,9.80
2018-07-04T18:53:04.475Z,14.03
2018-07-04T18:55:44.122Z,11.60
2018-07-04T18:58:24.039Z,10.40
2018-07-04T19:01:04.499Z,10.53
2018-07-04T19:03:44.649Z,16.23
2018-07-04T19:06:24.494Z,11.00
2018-07-04T19:09:05.592Z,17.70
2018-07-04T19:11:45.487Z,10.37
2018-07-04T19:14:25.167Z,13.30
2018-07-04T19:17:04.752Z,10.53
2018-07-04T19:19:44.847Z,16.70
2018-07-04T19:22:24.609Z,10.53
2018-07-04T19:25:04.650Z,16.13
2018-07-04T19:27:44.435Z,12.80
2018-07-04T19:30:24.854Z,11.67
2018-07-04T19:33:04.641Z,11.93
2018-07-04T19:35:44.355Z,13.10
2018-07-04T19:38:24.220Z,21.60
2018-07-04T19:41:08.040Z,11.67
2018-07-04T19:43:47.997Z,15.93
2018-07-04T19:46:27.945Z,24.17
2018-07-04T19:49:07.599Z,14.67
2018-07-04T19:51:48.674Z,14.93
2018-07-04T19:54:28.509Z,20.63
2018-07-04T19:57:08.694Z,15.00
2018-07-04T19:59:48.408Z,14.17
2018-07-04T20:02:28.297Z,14.70
2018-07-04T20:05:08.041Z,14.17
2018-07-04T20:07:47.968Z,18.50
2018-07-04T20:10:27.679Z,15.33
2018-07-04T20:13:07.543Z,22.43
2018-07-04T20:15:47.260Z,17.40
2018-07-04T20:18:27.176Z,15.30
2018-07-04T20:21:06.967Z,23.33
2018-07-04T20:23:46.864Z,17.93
2018-07-04T20:26:26.499Z,18.40
2018-07-04T20:29:06.434Z,29.23
2018-07-04T20:31:46.068Z,16.60
2018-07-04T20:34:26.211Z,21.93
2018-07-04T20:37:05.875Z,17.93
2018-07-04T20:39:46.212Z,16.57
2018-07-04T20:42:26.111Z,20.80
2018-07-04T20:45:05.904Z,17.63
2018-07-04T20:47:45.516Z,19.13
2018-07-04T20:50:25.383Z,17.60
2018-07-04T20:53:05.362Z,14.27
2018-07-04T20:55:46.233Z,17.70
2018-07-04T20:58:26.195Z,19.40
2018-07-04T21:01:06.937Z,13.13
2018-07-04T21:03:47.592Z,14.43
2018-07-04T21:06:27.316Z,17.23
2018-07-04T21:09:07.100Z,20.37
2018-07-04T21:11:46.839Z,16.90
2018-07-04T21:14:26.712Z,14.03
2018-07-04T21:17:06.447Z,12.77
2018-07-04T21:19:46.359Z,25.70
2018-07-04T21:22:26.349Z,21.93
2018-07-04T21:25:06.716Z,13.97
2018-07-04T21:27:46.879Z,18.60
2018-07-04T21:30:26.561Z,25.67
2018-07-04T21:33:06.862Z,17.93
2018-07-04T21:35:46.763Z,20.50
2018-07-04T21:38:26.744Z,14.17
2018-07-04T21:41:06.530Z,18.63
2018-07-04T21:43:46.303Z,18.10
2018-07-04T21:46:25.969Z,18.80
2018-07-04T21:49:05.871Z,21.30
2018-07-04T21:51:45.648Z,19.07
2018-07-04T21:54:26.043Z,17.67
2018-07-04T21:57:05.696Z,17.70
2018-07-04T21:59:45.756Z,15.60
2018-07-04T22:02:25.903Z,14.70
2018-07-04T22:05:05.876Z,19.00
2018-07-04T22:07:46.417Z,21.10
2018-07-04T22:10:26.263Z,14.40
2018-07-04T22:13:06.113Z,17.67
2018-07-04T22:15:45.836Z,13.90
2018-07-04T22:18:25.358Z,15.60
2018-07-04T22:21:05.328Z,15.40
2018-07-04T22:23:45.501Z,15.20
2018-07-04T22:26:25.430Z,18.00
2018-07-04T22:29:05.311Z,14.40
2018-07-04T22:31:44.943Z,18.03
2018-07-04T22:34:25.499Z,20.00
2018-07-04T22:37:05.552Z,14.30
2018-07-04T22:39:45.304Z,13.80
2018-07-04T22:42:25.312Z,23.00
2018-07-04T22:45:05.714Z,16.13
2018-07-04T22:47:45.634Z,20.43
2018-07-04T22:50:25.367Z,21.37
2018-07-04T22:53:05.269Z,17.30
2018-07-04T22:55:45.020Z,22.10
2018-07-04T22:58:24.635Z,16.93
2018-07-04T23:01:04.355Z,26.33
2018-07-04T23:03:44.215Z,24.13
2018-07-04T23:06:24.000Z,22.03
2018-07-04T23:09:05.024Z,17.17
2018-07-04T23:11:44.824Z,17.90
2018-07-04T23:14:24.640Z,20.67
2018-07-04T23:17:04.251Z,24.30
2018-07-04T23:19:44.307Z,21.53
2018-07-04T23:22:24.092Z,19.50
2018-07-04T23:25:04.752Z,20.50
2018-07-04T23:27:44.607Z,26.10
2018-07-04T23:30:24.208Z,18.67
2018-07-04T23:33:04.619Z,23.83
2018-07-04T23:35:44.743Z,20.27
2018-07-04T23:38:24.607Z,26.20
2018-07-04T23:41:04.496Z,17.37
2018-07-04T23:43:44.700Z,17.97
2018-07-04T23:46:24.504Z,17.27
2018-07-04T23:49:04.296Z,20.50
2018-07-04T23:51:44.343Z,18.63
2018-07-04T23:54:24.088Z,27.07
2018-07-04T23:57:03.931Z,38.53
2018-07-04T23:59:43.660Z,21.00
